Aviation Digital Data Service (ADDS)

Output produced by METARs form (2248 UTC 20 October 2014)
found at http://www.aviationweather.gov/adds/metars/
 
KFIG 202154Z AUTO 19007KT 10SM -RA BKN055 BKN070 OVC100 12/04 A2989 RMK AO2 RAB44 SLP127 P0000 T01220044
KFIG 202054Z AUTO 20006KT 10SM CLR 13/03 A2990 RMK AO2 SLP129 T01280033 56010
KFIG 201954Z AUTO VRB05KT 10SM BKN110 13/04 A2990 RMK AO2 SLP132 T01280039
KFIG 201854Z AUTO 21008KT 10SM SCT110 12/04 A2991 RMK AO2 SLP135 T01170039
KFIG 201754Z AUTO 21010KT 10SM SCT110 12/03 A2993 RMK AO2 SLP140 T01170033 10117 20033 56026
KFIG 201654Z AUTO 21008KT 10SM OVC100 11/03 A2994 RMK AO2 PRESFR SLP147 T01060033
KFIG 201554Z AUTO 23005KT 10SM BKN100 10/04 A2998 RMK AO2 SLP160 T01000039
KFIG 201454Z AUTO 22004KT 10SM BKN110 08/04 A3001 RMK AO2 SLP171 T00780039 58003
KFIG 201354Z AUTO 00000KT 10SM OVC100 06/03 A3002 RMK AO2 SLP174 T00560028
KFIG 201254Z AUTO 00000KT 10SM BKN120 04/02 A3002 RMK AO2 SLP177 T00390022
KFIG 201154Z AUTO 00000KT 10SM OVC110 04/02 A3002 RMK AO2 SLP173 T00390022 10039 20017 56005
KFIG 201054Z AUTO 00000KT 10SM OVC110 04/02 A3002 RMK AO2 SLP174 T00390017
KFIG 200954Z AUTO 20004KT 10SM BKN120 03/01 A3003 RMK AO2 SLP176 T00330011
KFIG 200854Z AUTO 00000KT 10SM OVC120 03/02 A3003 RMK AO2 SLP178 T00280017 58005
KFIG 200754Z AUTO 00000KT 10SM CLR 02/01 A3004 RMK AO2 SLP180 T00220011
KFIG 200654Z AUTO 00000KT 10SM CLR 02/01 A3005 RMK AO2 SLP184 T00170006
KFIG 200554Z AUTO 00000KT 10SM CLR 02/01 A3005 RMK AO2 SLP184 T00220006 10067 20011 58005
KFIG 200454Z AUTO 00000KT 10SM CLR 03/01 A3006 RMK AO2 SLP186 T00280006 401110017
KFIG 200354Z AUTO 22003KT 10SM CLR 02/00 A3006 RMK AO2 SLP189 T00220000
KFIG 200254Z AUTO 00000KT 10SM CLR 02/M01 A3007 RMK AO2 SLP193 T00221006 56001
KFIG 200154Z AUTO 23003KT 10SM CLR 04/00 A3007 RMK AO2 SLP192 T00390000
KFIG 200054Z AUTO 20003KT 10SM CLR 05/00 A3007 RMK AO2 SLP192 T00500000
KFIG 192354Z AUTO 27005KT 10SM CLR 07/M01 A3007 RMK AO2 SLP192 T00671011 10111 20067 53007
KFIG 192254Z AUTO 28005KT 10SM CLR 08/M02 A3006 RMK AO2 SLP188 T00781017
KFIG 192154Z AUTO 28007KT 10SM CLR 09/M03 A3005 RMK AO2 SLP184 T00941028
KFIG 192054Z AUTO 29010G18KT 10SM CLR 11/M03 A3005 RMK AO2 SLP182 T01061033 58005
KFIG 191954Z AUTO 29015G21KT 10SM CLR 11/M03 A3006 RMK AO2 SLP185 T01061033
KFIG 191854Z AUTO 30011G18KT 10SM CLR 11/M03 A3006 RMK AO2 SLP186 T01061028
KFIG 191754Z AUTO 31013G19KT 10SM CLR 09/M03 A3007 RMK AO2 SLP187 T00941033 10094 20028 58010
KFIG 191654Z AUTO 27011G18KT 240V310 10SM CLR 09/M02 A3008 RMK AO2 SLP192 T00891022
KFIG 191554Z AUTO 28007G19KT 10SM SCT037 08/M02 A3009 RMK AO2 SLP196 T00781022
KFIG 191454Z AUTO 33013G18KT 10SM OVC034 06/M02 A3010 RMK AO2 SLP200 T00561022 51013
KFIG 191354Z AUTO 32013G22KT 10SM OVC036 04/M01 A3009 RMK AO2 SLP198 T00441011
KFIG 191254Z AUTO 33007KT 10SM OVC037 04/M01 A3008 RMK AO2 SLP193 T00391011
KFIG 191154Z AUTO 31006KT 10SM FEW017 BKN036 OVC043 03/01 A3006 RMK AO2 RAE02B37E50 SLP187 P0000 60000 70005 T00280006 10056 20028 51026
KFIG 191102Z AUTO 31005KT 10SM FEW025 OVC040 03/00 A3004 RMK AO2 RAE02 P0000 T00280000
KFIG 191054Z AUTO 32009G20KT 10SM -RA FEW020 BKN025 OVC042 03/00 A3004 RMK AO2 RAB50 SLP180 P0000 T00280000